2026/08/23

Sensor Date Temp./Hum.
h3-hermonville 23-08-2026 - 23:59 17°C / 55.5%
h4-hermonville 23-08-2026 - 23:58 18.3°C / 51.5%
h2-hermonville 23-08-2026 - 23:53 17.6°C / 54%
h1-hermonville 23-08-2026 - 23:53 15.4°C / 60.5%
h3-hermonville 23-08-2026 - 23:49 17.1°C / 55.5%
h4-hermonville 23-08-2026 - 23:48 18.3°C / 51.5%
h2-hermonville 23-08-2026 - 23:43 18°C / 53%
h1-hermonville 23-08-2026 - 23:43 15.5°C / 60.5%
h3-hermonville 23-08-2026 - 23:39 17.1°C / 55%
h2-hermonville 23-08-2026 - 23:33 17.9°C / 53%
h1-hermonville 23-08-2026 - 23:33 15.5°C / 60.5%
h4-hermonville 23-08-2026 - 23:28 18.3°C / 52%
h2-hermonville 23-08-2026 - 23:23 17.9°C / 53%
h1-hermonville 23-08-2026 - 23:23 15.6°C / 60%
h2-hermonville 23-08-2026 - 23:03 18.5°C / 52%
h1-hermonville 23-08-2026 - 23:03 16°C / 58.5%
h3-hermonville 23-08-2026 - 22:59 17.9°C / 53%
h4-hermonville 23-08-2026 - 22:58 18.5°C / 51%
h1-hermonville 23-08-2026 - 22:53 16.2°C / 58%
h4-hermonville 23-08-2026 - 22:48 18.6°C / 50%
h2-hermonville 23-08-2026 - 22:43 19°C / 50%
h1-hermonville 23-08-2026 - 22:43 16.4°C / 57.5%
h3-hermonville 23-08-2026 - 22:39 18.1°C / 51.5%
h2-hermonville 23-08-2026 - 22:33 19°C / 50%
h1-hermonville 23-08-2026 - 22:33 16.7°C / 56.5%
h3-hermonville 23-08-2026 - 22:29 18.5°C / 50.5%
h2-hermonville 23-08-2026 - 22:23 19.3°C / 49%
h1-hermonville 23-08-2026 - 22:23 16.9°C / 55.5%
h3-hermonville 23-08-2026 - 22:19 18.8°C / 49.5%
h2-hermonville 23-08-2026 - 22:13 19.5°C / 48%
h1-hermonville 23-08-2026 - 22:13 17.1°C / 54.5%
h3-hermonville 23-08-2026 - 22:09 19.3°C / 48.5%
h4-hermonville 23-08-2026 - 22:08 18.4°C / 49.5%
h2-hermonville 23-08-2026 - 22:03 19.9°C / 47%
h1-hermonville 23-08-2026 - 22:03 17.5°C / 53.5%
h3-hermonville 23-08-2026 - 21:59 19.2°C / 48.5%
h4-hermonville 23-08-2026 - 21:58 18.5°C / 49%
h2-hermonville 23-08-2026 - 21:53 20.3°C / 46%
h1-hermonville 23-08-2026 - 21:53 17.7°C / 52%
h3-hermonville 23-08-2026 - 21:49 19.4°C / 48%
h4-hermonville 23-08-2026 - 21:48 18.6°C / 48.5%
h2-hermonville 23-08-2026 - 21:43 20.4°C / 45%
h1-hermonville 23-08-2026 - 21:43 18°C / 51.5%
h3-hermonville 23-08-2026 - 21:39 19.6°C / 47%
h2-hermonville 23-08-2026 - 21:33 20.9°C / 45%
h1-hermonville 23-08-2026 - 21:33 18.2°C / 50.5%
h3-hermonville 23-08-2026 - 21:29 19.6°C / 47%
h4-hermonville 23-08-2026 - 21:28 19°C / 47%
h2-hermonville 23-08-2026 - 21:23 21.2°C / 45%
h1-hermonville 23-08-2026 - 21:23 18.4°C / 49.5%
h3-hermonville 23-08-2026 - 21:19 19.9°C / 46%
h4-hermonville 23-08-2026 - 21:18 19.2°C / 47%
h2-hermonville 23-08-2026 - 21:13 21.4°C / 44.5%
h1-hermonville 23-08-2026 - 21:13 18.7°C / 49%
h3-hermonville 23-08-2026 - 21:09 20.1°C / 46%
h4-hermonville 23-08-2026 - 21:08 19.3°C / 46.5%
h2-hermonville 23-08-2026 - 21:03 21.5°C / 44%
h1-hermonville 23-08-2026 - 21:03 19°C / 48.5%
h3-hermonville 23-08-2026 - 20:59 20.2°C / 45.5%
h4-hermonville 23-08-2026 - 20:58 19.7°C / 46%
h2-hermonville 23-08-2026 - 20:53 21.5°C / 43.5%
h1-hermonville 23-08-2026 - 20:53 19.2°C / 47.5%
h3-hermonville 23-08-2026 - 20:49 20.3°C / 45%
h2-hermonville 23-08-2026 - 20:43 21.7°C / 43.5%
h1-hermonville 23-08-2026 - 20:43 19.5°C / 47%
h3-hermonville 23-08-2026 - 20:39 20.5°C / 44.5%
h4-hermonville 23-08-2026 - 20:38 20°C / 44.5%
h2-hermonville 23-08-2026 - 20:33 21.5°C / 43%
h1-hermonville 23-08-2026 - 20:33 19.7°C / 46%
h3-hermonville 23-08-2026 - 20:29 20.7°C / 43.5%
h4-hermonville 23-08-2026 - 20:28 20.3°C / 44%
h2-hermonville 23-08-2026 - 20:23 21.7°C / 42%
h1-hermonville 23-08-2026 - 20:23 20.1°C / 45%
h3-hermonville 23-08-2026 - 20:19 20.9°C / 43.5%
h4-hermonville 23-08-2026 - 20:18 20.6°C / 43%
h2-hermonville 23-08-2026 - 20:13 22°C / 41.5%
h1-hermonville 23-08-2026 - 20:13 20.5°C / 44%
h4-hermonville 23-08-2026 - 20:08 20.9°C / 42%
h2-hermonville 23-08-2026 - 20:03 22.5°C / 40.5%
h3-hermonville 23-08-2026 - 19:59 21.3°C / 43%
h4-hermonville 23-08-2026 - 19:58 21.1°C / 42.5%
h2-hermonville 23-08-2026 - 19:53 23.3°C / 39.5%
h1-hermonville 23-08-2026 - 19:53 21.1°C / 43.5%
h3-hermonville 23-08-2026 - 19:49 21.6°C / 42%
h4-hermonville 23-08-2026 - 19:48 21.4°C / 41%
h2-hermonville 23-08-2026 - 19:43 23.7°C / 38%
h1-hermonville 23-08-2026 - 19:43 21.4°C / 41.5%
h3-hermonville 23-08-2026 - 19:39 21.7°C / 40.5%
h4-hermonville 23-08-2026 - 19:38 21.6°C / 40%
h2-hermonville 23-08-2026 - 19:33 23.6°C / 37.5%
h1-hermonville 23-08-2026 - 19:33 21.4°C / 41%
h3-hermonville 23-08-2026 - 19:29 21.8°C / 41%
h4-hermonville 23-08-2026 - 19:28 21.7°C / 40%
h2-hermonville 23-08-2026 - 19:23 24.1°C / 36.5%
h1-hermonville 23-08-2026 - 19:23 21.6°C / 40.5%
h3-hermonville 23-08-2026 - 19:19 21.8°C / 40%
h4-hermonville 23-08-2026 - 19:18 21.7°C / 39%
h2-hermonville 23-08-2026 - 19:13 23.7°C / 36.5%
h1-hermonville 23-08-2026 - 19:13 21.6°C / 40%
h4-hermonville 23-08-2026 - 19:08 22°C / 38.5%
h2-hermonville 23-08-2026 - 19:03 24.4°C / 35%
h3-hermonville 23-08-2026 - 18:59 22°C / 39%
h4-hermonville 23-08-2026 - 18:58 22°C / 38%
h2-hermonville 23-08-2026 - 18:53 24.6°C / 34%
h1-hermonville 23-08-2026 - 18:53 22°C / 38%
h3-hermonville 23-08-2026 - 18:49 22°C / 38%
h4-hermonville 23-08-2026 - 18:48 22.2°C / 36.5%
h2-hermonville 23-08-2026 - 18:43 24.8°C / 34%
h1-hermonville 23-08-2026 - 18:43 22°C / 38%
h3-hermonville 23-08-2026 - 18:39 22.1°C / 38%
h4-hermonville 23-08-2026 - 18:38 22.3°C / 37.5%
h1-hermonville 23-08-2026 - 18:33 22°C / 39%
h3-hermonville 23-08-2026 - 18:29 22.3°C / 39%
h4-hermonville 23-08-2026 - 18:28 22.2°C / 38%
h2-hermonville 23-08-2026 - 18:23 24.5°C / 35.5%
h1-hermonville 23-08-2026 - 18:23 22.1°C / 38.5%
h3-hermonville 23-08-2026 - 18:19 22.3°C / 39%
h4-hermonville 23-08-2026 - 18:18 22.3°C / 38%
h2-hermonville 23-08-2026 - 18:13 24.5°C / 34.5%
h1-hermonville 23-08-2026 - 18:13 22.1°C / 38.5%
h3-hermonville 23-08-2026 - 18:09 22.2°C / 38%
h4-hermonville 23-08-2026 - 18:08 22.1°C / 37%
h2-hermonville 23-08-2026 - 18:03 24.3°C / 34%
h1-hermonville 23-08-2026 - 18:03 22.1°C / 37%
h3-hermonville 23-08-2026 - 17:59 22.3°C / 37%
h4-hermonville 23-08-2026 - 17:58 22.2°C / 36%
h2-hermonville 23-08-2026 - 17:53 24.8°C / 34%
h3-hermonville 23-08-2026 - 17:49 22.5°C / 37.5%
h4-hermonville 23-08-2026 - 17:48 22.2°C / 36.5%
h2-hermonville 23-08-2026 - 17:43 24.4°C / 34.5%
h1-hermonville 23-08-2026 - 17:43 22.1°C / 38.5%
h3-hermonville 23-08-2026 - 17:39 22.4°C / 37.5%
h4-hermonville 23-08-2026 - 17:38 22.2°C / 36.5%
h2-hermonville 23-08-2026 - 17:33 24.5°C / 34.5%
h1-hermonville 23-08-2026 - 17:33 22.2°C / 38.5%
h3-hermonville 23-08-2026 - 17:29 22.4°C / 38.5%
h4-hermonville 23-08-2026 - 17:28 22.1°C / 38%
h2-hermonville 23-08-2026 - 17:23 24.1°C / 35.5%
h3-hermonville 23-08-2026 - 17:19 22.4°C / 37.5%
h4-hermonville 23-08-2026 - 17:18 22.1°C / 37.5%
h2-hermonville 23-08-2026 - 17:13 24.7°C / 33.5%
h3-hermonville 23-08-2026 - 17:09 22.6°C / 37%
h4-hermonville 23-08-2026 - 17:08 22°C / 36.5%
h2-hermonville 23-08-2026 - 17:03 23.9°C / 34%
h1-hermonville 23-08-2026 - 17:03 21.9°C / 37%
h3-hermonville 23-08-2026 - 16:59 22.5°C / 36.5%
h4-hermonville 23-08-2026 - 16:58 21.9°C / 35%
h2-hermonville 23-08-2026 - 16:53 23.4°C / 34.5%
h1-hermonville 23-08-2026 - 16:53 21.7°C / 37%
h4-hermonville 23-08-2026 - 16:48 22°C / 34%
h2-hermonville 23-08-2026 - 16:43 23.5°C / 35%
h1-hermonville 23-08-2026 - 16:43 21.6°C / 37%
h3-hermonville 23-08-2026 - 16:39 22.4°C / 38%
h4-hermonville 23-08-2026 - 16:38 21.8°C / 36%
h2-hermonville 23-08-2026 - 16:33 23°C / 38.5%
h1-hermonville 23-08-2026 - 16:33 21.3°C / 41.5%
h3-hermonville 23-08-2026 - 16:29 22.1°C / 40%
h4-hermonville 23-08-2026 - 16:28 21.7°C / 39.5%
h2-hermonville 23-08-2026 - 16:23 22.9°C / 41%
h3-hermonville 23-08-2026 - 16:19 22.1°C / 41%
h4-hermonville 23-08-2026 - 16:18 21.8°C / 39.5%
h2-hermonville 23-08-2026 - 16:13 22.4°C / 40.5%
h1-hermonville 23-08-2026 - 16:13 21.3°C / 42%
h3-hermonville 23-08-2026 - 16:09 22.2°C / 40%
h4-hermonville 23-08-2026 - 16:08 21.5°C / 40.5%
h2-hermonville 23-08-2026 - 16:03 22.1°C / 40.5%
h3-hermonville 23-08-2026 - 15:59 22.1°C / 41%
h4-hermonville 23-08-2026 - 15:58 21.6°C / 40.5%
h2-hermonville 23-08-2026 - 15:53 22.3°C / 41%
h3-hermonville 23-08-2026 - 15:49 22.3°C / 41%
h4-hermonville 23-08-2026 - 15:48 21.7°C / 40%
h2-hermonville 23-08-2026 - 15:43 22.2°C / 42.5%
h1-hermonville 23-08-2026 - 15:43 21°C / 42%
h3-hermonville 23-08-2026 - 15:39 22°C / 40.5%
h4-hermonville 23-08-2026 - 15:38 21.6°C / 41%
h2-hermonville 23-08-2026 - 15:33 21.9°C / 42.5%
h1-hermonville 23-08-2026 - 15:33 21°C / 43%
h3-hermonville 23-08-2026 - 15:29 21.8°C / 43%
h4-hermonville 23-08-2026 - 15:28 21.4°C / 42%
h2-hermonville 23-08-2026 - 15:23 21.6°C / 43.5%
h1-hermonville 23-08-2026 - 15:23 20.6°C / 44.5%
h3-hermonville 23-08-2026 - 15:19 21.9°C / 43%
h4-hermonville 23-08-2026 - 15:18 21.3°C / 42.5%
h2-hermonville 23-08-2026 - 15:13 21.4°C / 44%
h3-hermonville 23-08-2026 - 15:09 21.8°C / 43.5%
h4-hermonville 23-08-2026 - 15:08 21.2°C / 42.5%
h2-hermonville 23-08-2026 - 15:03 21.5°C / 44.5%
h3-hermonville 23-08-2026 - 14:59 21.9°C / 43%
h4-hermonville 23-08-2026 - 14:58 21.2°C / 43%
h2-hermonville 23-08-2026 - 14:53 21.3°C / 44.5%
h1-hermonville 23-08-2026 - 14:53 20.3°C / 46.5%
h3-hermonville 23-08-2026 - 14:49 21.7°C / 43.5%
h2-hermonville 23-08-2026 - 14:43 21.4°C / 46.5%
h1-hermonville 23-08-2026 - 14:43 20.4°C / 46%
h3-hermonville 23-08-2026 - 14:39 21.7°C / 45%
h2-hermonville 23-08-2026 - 14:33 21.2°C / 46%
h1-hermonville 23-08-2026 - 14:33 20.1°C / 48%
h3-hermonville 23-08-2026 - 14:29 21.6°C / 44.5%
h4-hermonville 23-08-2026 - 14:28 21.1°C / 43.5%
h2-hermonville 23-08-2026 - 14:23 21.1°C / 47.5%
h1-hermonville 23-08-2026 - 14:23 20.1°C / 47%
h3-hermonville 23-08-2026 - 14:19 21.7°C / 45.5%
h2-hermonville 23-08-2026 - 14:13 20.9°C / 47%
h1-hermonville 23-08-2026 - 14:13 19.8°C / 50%
h3-hermonville 23-08-2026 - 14:09 21.4°C / 46%
h2-hermonville 23-08-2026 - 14:03 20.9°C / 47%
h1-hermonville 23-08-2026 - 14:03 19.8°C / 48.5%
h3-hermonville 23-08-2026 - 13:59 21.2°C / 45.5%
h4-hermonville 23-08-2026 - 13:58 20.6°C / 45%
h2-hermonville 23-08-2026 - 13:53 20.9°C / 46.5%
h1-hermonville 23-08-2026 - 13:53 19.6°C / 49%
h3-hermonville 23-08-2026 - 13:49 20.9°C / 46.5%
h4-hermonville 23-08-2026 - 13:48 20.7°C / 44.5%
h2-hermonville 23-08-2026 - 13:43 20.8°C / 48%
h1-hermonville 23-08-2026 - 13:43 19.4°C / 50%
h3-hermonville 23-08-2026 - 13:39 20.8°C / 48.5%
h4-hermonville 23-08-2026 - 13:38 21°C / 45.5%
h2-hermonville 23-08-2026 - 13:33 20.9°C / 50.5%
h1-hermonville 23-08-2026 - 13:33 19.6°C / 51%
h3-hermonville 23-08-2026 - 13:29 21°C / 48%
h4-hermonville 23-08-2026 - 13:28 20.7°C / 47%
h2-hermonville 23-08-2026 - 13:23 20.6°C / 50%
h1-hermonville 23-08-2026 - 13:23 19.4°C / 53%
h3-hermonville 23-08-2026 - 13:19 20.6°C / 49%
h4-hermonville 23-08-2026 - 13:18 20.9°C / 47%
h2-hermonville 23-08-2026 - 13:13 20.5°C / 50.5%
h1-hermonville 23-08-2026 - 13:13 19.5°C / 52.5%
h3-hermonville 23-08-2026 - 13:09 20.9°C / 49%
h4-hermonville 23-08-2026 - 13:08 20.8°C / 47.5%
h2-hermonville 23-08-2026 - 13:03 20.4°C / 51%
h2-hermonville 23-08-2026 - 12:33 20°C / 52.5%
h1-hermonville 23-08-2026 - 12:33 18.6°C / 55.5%
h3-hermonville 23-08-2026 - 12:29 20.2°C / 51%
h4-hermonville 23-08-2026 - 12:27 20.9°C / 46.5%
h2-hermonville 23-08-2026 - 12:23 19.9°C / 52.5%
h1-hermonville 23-08-2026 - 12:23 18.5°C / 55.5%
h3-hermonville 23-08-2026 - 12:19 20.2°C / 51.5%
h4-hermonville 23-08-2026 - 12:18 21.2°C / 46.5%
h2-hermonville 23-08-2026 - 12:13 19.8°C / 53.5%
h1-hermonville 23-08-2026 - 12:13 18.5°C / 56%
h4-hermonville 23-08-2026 - 12:07 21.4°C / 46.5%
h2-hermonville 23-08-2026 - 12:03 19.6°C / 54.5%
h3-hermonville 23-08-2026 - 11:59 20.2°C / 53%
h4-hermonville 23-08-2026 - 11:57 22.1°C / 45.5%
h2-hermonville 23-08-2026 - 11:53 19.5°C / 56.5%
h1-hermonville 23-08-2026 - 11:53 18.1°C / 55%
h4-hermonville 23-08-2026 - 11:47 22°C / 46%
h2-hermonville 23-08-2026 - 11:43 19.2°C / 56%
h1-hermonville 23-08-2026 - 11:43 18°C / 58.5%
h3-hermonville 23-08-2026 - 11:39 19.8°C / 54%
h4-hermonville 23-08-2026 - 11:37 22.6°C / 43.5%
h2-hermonville 23-08-2026 - 11:33 19°C / 55.5%
h1-hermonville 23-08-2026 - 11:33 17.7°C / 58.5%
h3-hermonville 23-08-2026 - 11:29 19.4°C / 56%
h4-hermonville 23-08-2026 - 11:27 23.5°C / 43.5%
h2-hermonville 23-08-2026 - 11:23 18.9°C / 57.5%
h1-hermonville 23-08-2026 - 11:23 17.7°C / 60.5%
h3-hermonville 23-08-2026 - 11:19 19.2°C / 56.5%
h2-hermonville 23-08-2026 - 11:13 18.6°C / 57.5%
h1-hermonville 23-08-2026 - 11:13 17.6°C / 60.5%
h3-hermonville 23-08-2026 - 11:09 19°C / 57%
h2-hermonville 23-08-2026 - 11:03 18.6°C / 58%
h1-hermonville 23-08-2026 - 11:03 17.2°C / 62%
h4-hermonville 23-08-2026 - 10:57 23.8°C / 42%
h2-hermonville 23-08-2026 - 10:53 18.3°C / 60%
h1-hermonville 23-08-2026 - 10:53 17°C / 64%
h3-hermonville 23-08-2026 - 10:49 18.7°C / 59%
h4-hermonville 23-08-2026 - 10:47 24°C / 43%
h2-hermonville 23-08-2026 - 10:43 18.2°C / 60.5%
h1-hermonville 23-08-2026 - 10:43 16.9°C / 64.5%
h3-hermonville 23-08-2026 - 10:39 18.3°C / 61%
h4-hermonville 23-08-2026 - 10:37 24.4°C / 43.5%
h2-hermonville 23-08-2026 - 10:33 17.8°C / 63%
h1-hermonville 23-08-2026 - 10:33 16.4°C / 67%
h3-hermonville 23-08-2026 - 10:29 17.9°C / 61.5%
h4-hermonville 23-08-2026 - 10:27 23.2°C / 46%
h2-hermonville 23-08-2026 - 10:23 17.8°C / 63%
h1-hermonville 23-08-2026 - 10:23 16°C / 68.5%
h3-hermonville 23-08-2026 - 10:19 17.8°C / 62.5%
h4-hermonville 23-08-2026 - 10:17 22.6°C / 46.5%
h2-hermonville 23-08-2026 - 10:13 17.6°C / 64%
h1-hermonville 23-08-2026 - 10:13 15.9°C / 69.5%
h3-hermonville 23-08-2026 - 10:09 17.7°C / 63%
h4-hermonville 23-08-2026 - 10:07 23.8°C / 44.5%
h2-hermonville 23-08-2026 - 10:03 17.1°C / 66.5%
h1-hermonville 23-08-2026 - 10:03 15.6°C / 71%
h3-hermonville 23-08-2026 - 09:59 17.6°C / 64.5%
h4-hermonville 23-08-2026 - 09:57 24.2°C / 44.5%
h2-hermonville 23-08-2026 - 09:53 16.8°C / 68%
h1-hermonville 23-08-2026 - 09:53 15.3°C / 72.5%
h3-hermonville 23-08-2026 - 09:49 17.3°C / 66.5%
h2-hermonville 23-08-2026 - 09:43 16.4°C / 69%
h1-hermonville 23-08-2026 - 09:43 14.7°C / 75.5%
h3-hermonville 23-08-2026 - 09:39 17.1°C / 66.5%
h2-hermonville 23-08-2026 - 09:33 16°C / 71%
h1-hermonville 23-08-2026 - 09:33 14.5°C / 76%
h3-hermonville 23-08-2026 - 09:29 16.8°C / 68%
h4-hermonville 23-08-2026 - 09:27 23.8°C / 45%
h2-hermonville 23-08-2026 - 09:23 15.5°C / 72%
h1-hermonville 23-08-2026 - 09:23 14.1°C / 78%
h3-hermonville 23-08-2026 - 09:19 16.5°C / 68.5%
h4-hermonville 23-08-2026 - 09:18 23.9°C / 45%
h2-hermonville 23-08-2026 - 09:13 15.4°C / 72.5%
h1-hermonville 23-08-2026 - 09:13 13.8°C / 78.5%
h3-hermonville 23-08-2026 - 09:09 16.2°C / 69.5%
h2-hermonville 23-08-2026 - 09:03 14.9°C / 74%
h1-hermonville 23-08-2026 - 09:03 13.6°C / 79%
h3-hermonville 23-08-2026 - 08:59 15.7°C / 70.5%
h4-hermonville 23-08-2026 - 08:58 23.6°C / 46%
h2-hermonville 23-08-2026 - 08:53 15°C / 72.5%
h1-hermonville 23-08-2026 - 08:53 13.3°C / 80.5%
h3-hermonville 23-08-2026 - 08:49 15.5°C / 72%
h4-hermonville 23-08-2026 - 08:47 23.1°C / 46.5%
h2-hermonville 23-08-2026 - 08:43 14.8°C / 72.5%
h1-hermonville 23-08-2026 - 08:43 12.9°C / 81%
h3-hermonville 23-08-2026 - 08:39 15°C / 73%
h4-hermonville 23-08-2026 - 08:38 22.5°C / 48.5%
h2-hermonville 23-08-2026 - 08:33 14.8°C / 75%
h1-hermonville 23-08-2026 - 08:33 12.6°C / 82.5%
h3-hermonville 23-08-2026 - 08:29 14.7°C / 74%
h4-hermonville 23-08-2026 - 08:27 21.7°C / 51%
h2-hermonville 23-08-2026 - 08:23 14.5°C / 74%
h1-hermonville 23-08-2026 - 08:23 12.5°C / 83%
h3-hermonville 23-08-2026 - 08:19 14.3°C / 75%
h4-hermonville 23-08-2026 - 08:17 20°C / 56%
h2-hermonville 23-08-2026 - 08:13 15.1°C / 72%
h1-hermonville 23-08-2026 - 08:13 12.4°C / 84%
h3-hermonville 23-08-2026 - 08:09 14.2°C / 75.5%
h4-hermonville 23-08-2026 - 08:07 18°C / 61.5%
h2-hermonville 23-08-2026 - 08:03 15.1°C / 73.5%
h1-hermonville 23-08-2026 - 08:03 12.2°C / 84%
h3-hermonville 23-08-2026 - 07:59 14.4°C / 75%
h4-hermonville 23-08-2026 - 07:57 16.9°C / 65.5%
h2-hermonville 23-08-2026 - 07:53 14.6°C / 74.5%
h1-hermonville 23-08-2026 - 07:53 12.3°C / 83.5%
h3-hermonville 23-08-2026 - 07:49 14.2°C / 74.5%
h4-hermonville 23-08-2026 - 07:47 16.2°C / 66.5%
h2-hermonville 23-08-2026 - 07:43 14°C / 76.5%
h1-hermonville 23-08-2026 - 07:43 12.3°C / 83.5%
h3-hermonville 23-08-2026 - 07:39 14.1°C / 75%
h4-hermonville 23-08-2026 - 07:37 15.8°C / 68%
h2-hermonville 23-08-2026 - 07:33 13.9°C / 76.5%
h1-hermonville 23-08-2026 - 07:33 12.3°C / 83.5%
h3-hermonville 23-08-2026 - 07:29 14.2°C / 75%
h4-hermonville 23-08-2026 - 07:27 15.3°C / 70%
h2-hermonville 23-08-2026 - 07:23 13.8°C / 77%
h1-hermonville 23-08-2026 - 07:23 12.3°C / 84%
h3-hermonville 23-08-2026 - 07:19 14.4°C / 74.5%
h4-hermonville 23-08-2026 - 07:18 15.4°C / 69.5%
h2-hermonville 23-08-2026 - 07:13 13.8°C / 77%
h1-hermonville 23-08-2026 - 07:13 12.1°C / 84.5%
h3-hermonville 23-08-2026 - 07:09 14.3°C / 74%
h4-hermonville 23-08-2026 - 07:07 15.2°C / 70%
h2-hermonville 23-08-2026 - 07:03 13.7°C / 77%
h1-hermonville 23-08-2026 - 07:03 12.2°C / 85%
h3-hermonville 23-08-2026 - 06:59 14.1°C / 75.5%
h4-hermonville 23-08-2026 - 06:58 15°C / 70.5%
h2-hermonville 23-08-2026 - 06:53 13.7°C / 77%
h1-hermonville 23-08-2026 - 06:53 12.2°C / 84.5%
h3-hermonville 23-08-2026 - 06:49 13.9°C / 75.5%
h4-hermonville 23-08-2026 - 06:47 15°C / 70.5%
h2-hermonville 23-08-2026 - 06:43 13.7°C / 77.5%
h1-hermonville 23-08-2026 - 06:43 12.2°C / 84.5%
h3-hermonville 23-08-2026 - 06:39 14.2°C / 74.5%
h2-hermonville 23-08-2026 - 06:33 14°C / 76%
h1-hermonville 23-08-2026 - 06:33 12.4°C / 84%
h3-hermonville 23-08-2026 - 06:29 14.5°C / 74%
h4-hermonville 23-08-2026 - 06:27 15.3°C / 69.5%
h2-hermonville 23-08-2026 - 06:23 13.9°C / 76.5%
h1-hermonville 23-08-2026 - 06:23 12.4°C / 84%
h3-hermonville 23-08-2026 - 06:19 14.4°C / 74%
h4-hermonville 23-08-2026 - 06:17 15.4°C / 69.5%
h2-hermonville 23-08-2026 - 06:13 14°C / 76%
h1-hermonville 23-08-2026 - 06:13 12.5°C / 83.5%
h3-hermonville 23-08-2026 - 06:09 14.5°C / 74%
h2-hermonville 23-08-2026 - 06:03 14°C / 76.5%
h1-hermonville 23-08-2026 - 06:03 12.5°C / 83.5%
h3-hermonville 23-08-2026 - 05:59 14.2°C / 75%
h4-hermonville 23-08-2026 - 05:57 15.4°C / 69%
h2-hermonville 23-08-2026 - 05:53 14.1°C / 76%
h1-hermonville 23-08-2026 - 05:53 12.6°C / 83%
h3-hermonville 23-08-2026 - 05:49 14.4°C / 74.5%
h4-hermonville 23-08-2026 - 05:47 15.9°C / 68%
h2-hermonville 23-08-2026 - 05:43 14.2°C / 75.5%
h1-hermonville 23-08-2026 - 05:43 12.6°C / 83%
h3-hermonville 23-08-2026 - 05:39 14.5°C / 73.5%
h1-hermonville 23-08-2026 - 05:33 12.7°C / 82.5%
h3-hermonville 23-08-2026 - 05:29 14.9°C / 73%
h4-hermonville 23-08-2026 - 05:28 16.1°C / 67%
h2-hermonville 23-08-2026 - 05:23 14.4°C / 74.5%
h1-hermonville 23-08-2026 - 05:23 12.7°C / 82.5%
h3-hermonville 23-08-2026 - 05:19 14.9°C / 72.5%
h4-hermonville 23-08-2026 - 05:17 15.8°C / 68%
h2-hermonville 23-08-2026 - 05:13 14.6°C / 74%
h1-hermonville 23-08-2026 - 05:13 12.7°C / 82.5%
h3-hermonville 23-08-2026 - 05:09 14.7°C / 73%
h2-hermonville 23-08-2026 - 05:03 14.4°C / 75%
h1-hermonville 23-08-2026 - 05:03 12.8°C / 82%
h3-hermonville 23-08-2026 - 04:59 14.7°C / 73.5%
h4-hermonville 23-08-2026 - 04:57 15.9°C / 67.5%
h2-hermonville 23-08-2026 - 04:53 14.2°C / 75.5%
h1-hermonville 23-08-2026 - 04:53 12.7°C / 82%
h3-hermonville 23-08-2026 - 04:49 14.8°C / 72.5%
h2-hermonville 23-08-2026 - 04:43 14.2°C / 75%
h1-hermonville 23-08-2026 - 04:43 12.9°C / 82%
h3-hermonville 23-08-2026 - 04:39 15.2°C / 72%
h4-hermonville 23-08-2026 - 04:37 15.6°C / 69%
h2-hermonville 23-08-2026 - 04:33 14.3°C / 75%
h1-hermonville 23-08-2026 - 04:33 13.1°C / 81%
h3-hermonville 23-08-2026 - 04:29 15°C / 72.5%
h4-hermonville 23-08-2026 - 04:28 15.9°C / 68%
h2-hermonville 23-08-2026 - 04:23 14.8°C / 73.5%
h1-hermonville 23-08-2026 - 04:23 13.3°C / 80.5%
h3-hermonville 23-08-2026 - 04:19 14.8°C / 73.5%
h1-hermonville 23-08-2026 - 04:13 13.3°C / 80%
h3-hermonville 23-08-2026 - 04:09 15°C / 72.5%
h4-hermonville 23-08-2026 - 04:07 16.2°C / 67.5%
h2-hermonville 23-08-2026 - 04:03 15.1°C / 72.5%
h1-hermonville 23-08-2026 - 04:03 13.4°C / 79.5%
h3-hermonville 23-08-2026 - 03:59 15.2°C / 72%
h4-hermonville 23-08-2026 - 03:57 16°C / 68%
h2-hermonville 23-08-2026 - 03:53 15.2°C / 72.5%
h1-hermonville 23-08-2026 - 03:53 13.5°C / 79.5%
h3-hermonville 23-08-2026 - 03:49 15.1°C / 72.5%
h4-hermonville 23-08-2026 - 03:47 16.1°C / 67.5%
h2-hermonville 23-08-2026 - 03:43 15.2°C / 72.5%
h1-hermonville 23-08-2026 - 03:43 13.6°C / 79%
h3-hermonville 23-08-2026 - 03:39 15.1°C / 72.5%
h2-hermonville 23-08-2026 - 03:33 15.3°C / 72%
h1-hermonville 23-08-2026 - 03:33 13.6°C / 79%
h3-hermonville 23-08-2026 - 03:29 15.2°C / 72.5%
h4-hermonville 23-08-2026 - 03:27 16.5°C / 65.5%
h2-hermonville 23-08-2026 - 03:23 15.3°C / 72.5%
h1-hermonville 23-08-2026 - 03:23 13.6°C / 79%
h3-hermonville 23-08-2026 - 03:19 15.1°C / 72.5%
h4-hermonville 23-08-2026 - 03:17 17°C / 64.5%
h2-hermonville 23-08-2026 - 03:13 15.4°C / 72%
h1-hermonville 23-08-2026 - 03:13 13.6°C / 79%
h3-hermonville 23-08-2026 - 03:09 15.1°C / 72.5%
h4-hermonville 23-08-2026 - 03:08 16.9°C / 65%
h2-hermonville 23-08-2026 - 03:03 15.3°C / 72%
h1-hermonville 23-08-2026 - 03:03 13.7°C / 79%
h3-hermonville 23-08-2026 - 02:59 15.2°C / 72%
h4-hermonville 23-08-2026 - 02:57 17.1°C / 64.5%
h2-hermonville 23-08-2026 - 02:53 15.4°C / 71.5%
h1-hermonville 23-08-2026 - 02:53 13.7°C / 79%
h3-hermonville 23-08-2026 - 02:49 15.3°C / 72%
h4-hermonville 23-08-2026 - 02:47 17.1°C / 64.5%
h2-hermonville 23-08-2026 - 02:43 15.5°C / 71%
h1-hermonville 23-08-2026 - 02:43 13.7°C / 79%
h4-hermonville 23-08-2026 - 02:37 17.2°C / 64.5%
h2-hermonville 23-08-2026 - 02:33 15.5°C / 71.5%
h1-hermonville 23-08-2026 - 02:33 13.7°C / 78.5%
h3-hermonville 23-08-2026 - 02:29 15.3°C / 72.5%
h4-hermonville 23-08-2026 - 02:27 17.4°C / 64%
h2-hermonville 23-08-2026 - 02:23 15.7°C / 71%
h1-hermonville 23-08-2026 - 02:23 13.9°C / 78.5%
h3-hermonville 23-08-2026 - 02:19 15.4°C / 71.5%
h4-hermonville 23-08-2026 - 02:17 17.3°C / 64%
h2-hermonville 23-08-2026 - 02:13 15.7°C / 71%
h1-hermonville 23-08-2026 - 02:13 13.9°C / 78%
h3-hermonville 23-08-2026 - 02:09 15.5°C / 71.5%
h4-hermonville 23-08-2026 - 02:07 17.3°C / 64%
h2-hermonville 23-08-2026 - 02:03 15.8°C / 70.5%
h1-hermonville 23-08-2026 - 02:03 14.1°C / 78%
h3-hermonville 23-08-2026 - 01:59 15.7°C / 71%
h2-hermonville 23-08-2026 - 01:53 16.1°C / 70%
h1-hermonville 23-08-2026 - 01:53 14.2°C / 77.5%
h3-hermonville 23-08-2026 - 01:49 15.8°C / 70.5%
h4-hermonville 23-08-2026 - 01:47 17.5°C / 64%
h2-hermonville 23-08-2026 - 01:43 16.3°C / 69.5%
h1-hermonville 23-08-2026 - 01:43 14.3°C / 77%
h3-hermonville 23-08-2026 - 01:39 15.8°C / 70.5%
h4-hermonville 23-08-2026 - 01:37 17.5°C / 63.5%
h2-hermonville 23-08-2026 - 01:33 16.4°C / 69%
h1-hermonville 23-08-2026 - 01:33 14.3°C / 77%
h3-hermonville 23-08-2026 - 01:29 15.9°C / 70.5%
h4-hermonville 23-08-2026 - 01:28 17.6°C / 63%
h2-hermonville 23-08-2026 - 01:23 16.1°C / 70%
h1-hermonville 23-08-2026 - 01:23 14.4°C / 77%
h3-hermonville 23-08-2026 - 01:19 16°C / 70.5%
h4-hermonville 23-08-2026 - 01:17 17.6°C / 63%
h2-hermonville 23-08-2026 - 01:13 16.4°C / 69%
h1-hermonville 23-08-2026 - 01:13 14.5°C / 76.5%
h3-hermonville 23-08-2026 - 01:09 16.2°C / 69.5%
h4-hermonville 23-08-2026 - 01:07 17.7°C / 63.5%
h2-hermonville 23-08-2026 - 01:03 16.7°C / 68%
h1-hermonville 23-08-2026 - 01:03 14.6°C / 76%
h3-hermonville 23-08-2026 - 00:59 16.3°C / 69%
h4-hermonville 23-08-2026 - 00:57 17.6°C / 63.5%
h2-hermonville 23-08-2026 - 00:53 17°C / 67.5%
h1-hermonville 23-08-2026 - 00:53 14.7°C / 75.5%
h3-hermonville 23-08-2026 - 00:49 16.4°C / 69%
h4-hermonville 23-08-2026 - 00:48 17.7°C / 63.5%
h2-hermonville 23-08-2026 - 00:43 16.8°C / 69%
h1-hermonville 23-08-2026 - 00:43 14.8°C / 76%
h3-hermonville 23-08-2026 - 00:39 16.4°C / 69.5%
h4-hermonville 23-08-2026 - 00:37 17.9°C / 63%
h2-hermonville 23-08-2026 - 00:33 16.7°C / 68.5%
h1-hermonville 23-08-2026 - 00:33 14.9°C / 76%
h3-hermonville 23-08-2026 - 00:29 16.5°C / 69%
h4-hermonville 23-08-2026 - 00:27 18.1°C / 63%
h2-hermonville 23-08-2026 - 00:23 16.9°C / 68%
h1-hermonville 23-08-2026 - 00:23 15.1°C / 75%
h3-hermonville 23-08-2026 - 00:19 16.5°C / 69%
h4-hermonville 23-08-2026 - 00:17 18.1°C / 62.5%
h2-hermonville 23-08-2026 - 00:13 17°C / 67.5%
h1-hermonville 23-08-2026 - 00:13 15°C / 75%
h3-hermonville 23-08-2026 - 00:09 16.6°C / 68.5%
h4-hermonville 23-08-2026 - 00:07 18.1°C / 63%
h2-hermonville 23-08-2026 - 00:03 17°C / 67%
h1-hermonville 23-08-2026 - 00:03 15.1°C / 74.5%